Terminal Aerodrome Forecast
Issued by NWS Blacksburg, VA

Home | Current Version | Previous Version | Text Only | Print | Product List | Glossary On
Versions: 1 2 3 4 5 6 7 8 9 10 11 12 13 14 15
000
FTUS41 KRNK 052349
TAFLYH
TAF
KLYH 052349Z 0600/0624 VRB03KT P6SM OVC120
     FM060600 09004KT P6SM -RA OVC050
     FM060800 10005KT 4SM -RA BR SCT009 OVC015
     FM061300 08007KT 1 1/2SM RA OVC004
     FM062200 11005KT 3SM -DZ BR OVC003=

USA.gov is the U.S. government's official web portal to all federal, state and local government web resources and services.